createdAt,value
2023-02-05T02:19:54.835Z,25.10
2023-02-05T02:30:11.693Z,25.30
2023-02-05T02:40:24.246Z,25.50
2023-02-05T02:50:36.407Z,25.70
2023-02-05T03:00:52.745Z,25.70
2023-02-05T03:11:59.272Z,25.80
2023-02-05T03:22:11.718Z,25.90
2023-02-05T03:33:29.863Z,26.00
2023-02-05T03:43:34.167Z,26.00
2023-02-05T03:53:53.757Z,26.10
2023-02-05T04:04:27.494Z,26.20
2023-02-05T05:16:31.690Z,26.40
2023-02-05T05:40:18.853Z,26.50
2023-02-05T05:51:56.301Z,26.40
2023-02-05T06:03:18.268Z,26.40
2023-02-05T06:13:47.815Z,26.40
2023-02-05T06:45:53.893Z,26.50
2023-02-05T06:57:53.032Z,26.50
2023-02-05T07:07:49.929Z,26.70
2023-02-05T07:18:46.535Z,26.80
2023-02-05T07:28:55.313Z,26.90
2023-02-05T07:39:06.984Z,26.90
2023-02-05T07:50:31.049Z,27.00
2023-02-05T08:02:18.092Z,27.00
2023-02-05T08:13:16.098Z,27.00
2023-02-05T09:25:26.853Z,27.10
2023-02-05T14:20:46.542Z,27.60
2023-02-05T17:23:32.585Z,27.90
2023-02-05T17:34:09.258Z,28.00
2023-02-05T17:45:03.453Z,27.90
2023-02-05T18:07:00.877Z,27.60
2023-02-05T18:17:15.109Z,27.50
2023-02-05T18:27:22.068Z,27.50
2023-02-05T18:37:31.126Z,27.40
2023-02-05T18:47:43.878Z,27.30
2023-02-05T18:57:58.040Z,27.30
2023-02-05T19:08:06.565Z,27.10
2023-02-05T19:30:51.051Z,26.90
2023-02-05T19:41:13.670Z,26.80
2023-02-05T19:51:25.808Z,26.60
2023-02-05T20:02:06.626Z,26.20
2023-02-05T20:12:37.167Z,26.00
2023-02-05T20:23:56.369Z,25.90
2023-02-05T20:45:23.053Z,25.70
2023-02-05T20:57:04.893Z,25.60
2023-02-05T21:07:45.391Z,25.50
2023-02-05T21:18:18.185Z,25.50
2023-02-05T21:28:57.025Z,25.50
2023-02-05T21:39:39.658Z,25.40
2023-02-05T21:50:26.717Z,25.30
2023-02-05T22:00:43.409Z,25.30
2023-02-05T22:11:05.958Z,25.20
2023-02-05T22:21:30.640Z,25.20
2023-02-05T22:31:55.765Z,25.10
2023-02-05T22:42:30.532Z,25.00
2023-02-05T22:53:10.365Z,25.00
2023-02-05T23:03:34.184Z,24.60
2023-02-05T23:14:03.879Z,24.50
2023-02-05T23:24:45.381Z,24.60
2023-02-05T23:35:04.801Z,24.40
2023-02-05T23:45:27.392Z,24.40
2023-02-05T23:55:49.683Z,24.30
